Chapel Hill, TN (37034)

12:34 PM CDT on August 25, 2016 (GMT -0500)
Chapel Hill | | Change Station

Elev 696 ft 35.61 °N, 86.70 °W | Updated 9 minutes ago

Scattered Clouds
Scattered Clouds
90.9 °F
Feels Like 102 °F
N
4.0
Wind Variable Wind from West
Gusts 6.0 mph

Today
High -- | Low -- °F
--% Chance of Precip.
Yesterday
High -- | Low -- °F
Precip. -- in
Pressure 30.19 in
Visibility 10.0 miles
Clouds Few 3300 ft
Scattered Clouds 4000 ft
Scattered Clouds 4800 ft
Heat Index 102 °F
Dew Point 76 °F
Humidity 61%
Rainfall 0.00 in
Snow Depth Not available.
6:13 AM 7:22 PM
Last Quarter, 43% visible
METAR KTHA 251715Z AUTO VRB06KT 10SM FEW033 SCT040 SCT048 31/22 A3019 RMK
Pressure 30.19 in
Visibility 10.0 miles
Clouds Few 3300 ft
Scattered Clouds 4000 ft
Scattered Clouds 4800 ft
Heat Index 102 °F
Dew Point 76 °F
Humidity 61%
Rainfall 0.00 in
Snow Depth Not available.
6:13 AM 7:22 PM
Last Quarter, 43% visible
METAR KTHA 251715Z AUTO VRB06KT 10SM FEW033 SCT040 SCT048 31/22 A3019 RMK
A tropical disturbance pushing toward the Bahamas, is expected to develop into a tropical depression or storm, and will likely target Florida and the Gulf Coast this weekend into next week.

Right now, the disturbance remains a broad area of low pressure pushing through the Dominican Republic and Haiti, headed toward the southeast Bahamas. Rainfall totals over 3 inches (with locally higher amounts) are expected in HispaƱiola, particularly over elevated terrain.

10-Day Weather Forecast

Almanac

Astronomy

Aug. 25, 2016 Rise Set
Actual Time
Civil Twilight
Nautical Twilight
Astronomical Twilight
Moon
Length of Visible Light
Length of Day
Tomorrow will be .
, % of the Moon is Illuminated

Today's Extremes

State Highs State Lows

Community

WunderPhotos

Upload Photos

1,934,884 photos uploaded!

WunderBlog® & News

Nearby

Air Quality

  Air Quality AQ Index Pollutant
Not available.

Snow Depth

Station Depth Elevation

Earthquake Activity

City Distance Mag. Time & Date
Minimum magnitude displayed is 2.5.

Coastal Water Temperatures

Place Temperature

Stations

Nearby Weather Stations

Station Location Temp. Windchill Dew Point Humidity Wind Precip. Elev Updated Type
                   

Watches & Warnings

There are currently no watches in effect.